Home > Products > Valid Products > TAF

000
FTUS43 KGLD 191751
TAFGLD
TAF
KGLD 191751Z 1918/2018 19015G25KT P6SM SKC
     FM200100 19010KT P6SM SKC
     FM201500 01008KT P6SM FEW050 SCT110=



000
FTUS43 KGLD 191751
TAFMCK
TAF
KMCK 191751Z 1918/2018 21015G25KT P6SM SKC
     FM200000 19008KT P6SM SKC
     FM201100 31005KT P6SM SCT120
     FM201500 02007KT P6SM SCT030 BKN110=



000
FTUS43 KGLD 191751
TAFMCK
TAF
KMCK 191751Z 1918/2018 21015G25KT P6SM SKC
     FM200000 19008KT P6SM SKC
     FM201100 31005KT P6SM SCT120
     FM201500 02007KT P6SM SCT030 BKN110=



000
FTUS43 KGLD 191136 CCA
TAFMCK
TAF COR
KMCK 191136Z 1912/2012 VRB04KT 1SM BR SKC
      TEMPO 1912/1913 4SM BR SCT005
     FM191300 21006KT P6SM SKC
     FM191600 22016G26KT P6SM FEW050
     FM200000 19010KT P6SM SKC
     FM200600 24010KT P6SM FEW050 SCT120=



000
FTUS43 KGLD 191126
TAFMCK
TAF
KMCK 191126Z 1912/2012 VRB04KT 1SM BR SKC
      TEMPO 1912/1913 4SM BR SCT005
     FM191300 21006KT P6SM SKC
     FM191600 22016G26KT P6SM FEW050
     FM200000 19010KT P6SM SKC
     FM200600 24020KT P6SM FEW050 SCT120=



000
FTUS43 KGLD 191126
TAFMCK
TAF
KMCK 191126Z 1912/2012 VRB04KT 1SM BR SKC
      TEMPO 1912/1913 4SM BR SCT005
     FM191300 21006KT P6SM SKC
     FM191600 22016G26KT P6SM FEW050
     FM200000 19010KT P6SM SKC
     FM200600 24020KT P6SM FEW050 SCT120=



000
FTUS43 KGLD 191126
TAFGLD
TAF
KGLD 191126Z 1912/2012 22010G16KT P6SM SKC
     FM191600 21018G28KT P6SM FEW050
     FM200000 19010G16KT P6SM SKC
     FM200600 24006KT P6SM FEW200=



000
FTUS43 KGLD 190901 AAA
TAFMCK
TAF AMD
KMCK 190901Z 1909/2006 00000KT 6SM BR SCT010
      TEMPO 1909/1913 3SM BR SCT005
     FM191300 21006KT 5SM BR BKN003
     FM191400 21005KT P6SM SCT003
     FM191500 22015G20KT P6SM SKC
     FM200000 19010KT P6SM SKC=



000
FTUS43 KGLD 190901 AAA
TAFMCK
TAF AMD
KMCK 190901Z 1909/2006 00000KT 6SM BR SCT010
      TEMPO 1909/1913 3SM BR SCT005
     FM191300 21006KT 5SM BR BKN003
     FM191400 21005KT P6SM SCT003
     FM191500 22015G20KT P6SM SKC
     FM200000 19010KT P6SM SKC=



000
FTUS43 KGLD 190520
TAFMCK
TAF
KMCK 190520Z 1906/2006 00000KT 1/4SM FG VV009
      TEMPO 1911/1913 3SM BR
     FM191300 21006KT 5SM BR BKN003
     FM191400 21005KT P6SM SCT003
     FM191500 22015G20KT P6SM SKC
     FM200000 19010KT P6SM SKC=



000
FTUS43 KGLD 190520
TAFGLD
TAF
KGLD 190520Z 1906/2006 20011KT P6SM SKC
     FM191100 22010KT P6SM SKC
     FM191600 21015G25KT P6SM SKC
     FM200000 19015KT P6SM SKC=



000
FTUS43 KGLD 190520
TAFMCK
TAF
KMCK 190520Z 1906/2006 00000KT 1/4SM FG VV009
      TEMPO 1911/1913 3SM BR
     FM191300 21006KT 5SM BR BKN003
     FM191400 21005KT P6SM SCT003
     FM191500 22015G20KT P6SM SKC
     FM200000 19010KT P6SM SKC=



000
FTUS43 KGLD 190421 AAB
TAFMCK
TAF AMD
KMCK 190421Z 1904/1924 00000KT 1/2SM FG SKC
     FM190500 12006KT 1/2SM FG SCT008
     FM190600 18010KT 1/2SM FG OVC003
     FM191300 21006KT 5SM BR BKN003
     FM191400 21005KT P6SM SCT003=



000
FTUS43 KGLD 190421 AAB
TAFMCK
TAF AMD
KMCK 190421Z 1904/1924 00000KT 1/2SM FG SKC
     FM190500 12006KT 1/2SM FG SCT008
     FM190600 18010KT 1/2SM FG OVC003
     FM191300 21006KT 5SM BR BKN003
     FM191400 21005KT P6SM SCT003=



000
FTUS43 KGLD 190254 AAA
TAFMCK
TAF AMD
KMCK 190254Z 1903/1924 08006KT 4SM BR SKC
     FM190500 12006KT 2SM BR OVC008
     FM190600 18010KT 1SM BR OVC003
     FM191300 21006KT 5SM BR BKN003
     FM191400 21005KT P6SM SCT003=



000
FTUS43 KGLD 190254 AAA
TAFMCK
TAF AMD
KMCK 190254Z 1903/1924 08006KT 4SM BR SKC
     FM190500 12006KT 2SM BR OVC008
     FM190600 18010KT 1SM BR OVC003
     FM191300 21006KT 5SM BR BKN003
     FM191400 21005KT P6SM SCT003=



000
FTUS43 KGLD 182329
TAFMCK
TAF
KMCK 182329Z 1900/1924 13007KT P6SM FEW018
     FM190200 12006KT 6SM BR OVC018
     FM190400 12006KT 2SM BR OVC008
     FM190500 18010KT 1SM BR OVC003
     FM191300 21006KT 5SM BR BKN003
     FM191400 21005KT P6SM SCT003=



000
FTUS43 KGLD 182329
TAFGLD
TAF
KGLD 182329Z 1900/1924 14010KT P6SM SKC
     FM190500 19012KT P6SM SKC
     FM191100 22010KT P6SM SKC
     FM191600 21015G24KT P6SM SKC=



000
FTUS43 KGLD 182329
TAFMCK
TAF
KMCK 182329Z 1900/1924 13007KT P6SM FEW018
     FM190200 12006KT 6SM BR OVC018
     FM190400 12006KT 2SM BR OVC008
     FM190500 18010KT 1SM BR OVC003
     FM191300 21006KT 5SM BR BKN003
     FM191400 21005KT P6SM SCT003=



000
FTUS43 KGLD 181958 AAA
TAFMCK
TAF AMD
KMCK 181958Z 1820/1918 13008KT 2SM BR OVC006
     FM182100 13009KT P6SM BKN010
      TEMPO 1821/1824 SCT010
     FM190400 21010KT P6SM FEW010
     FM190700 VRB05KT 1SM BR SKC
     FM191500 21010KT P6SM SKC=



000
FTUS43 KGLD 181732
TAFMCK
TAF
KMCK 181732Z 1818/1918 12008KT 6SM BR OVC008
      TEMPO 1818/1820 2SM BR OVC003
     FM182100 13009KT P6SM BKN015
     FM190400 21010KT P6SM FEW010
     FM190700 VRB05KT 1SM BR SKC
     FM191500 21010KT P6SM SKC=



000
FTUS43 KGLD 181732
TAFGLD
TAF
KGLD 181732Z 1818/1918 17008KT P6SM FEW015
     FM190000 16008KT P6SM SKC
     FM190800 20012KT P6SM SKC
     FM191600 19018G24KT P6SM FEW250=



000
FTUS43 KGLD 181732
TAFMCK
TAF
KMCK 181732Z 1818/1918 12008KT 6SM BR OVC008
      TEMPO 1818/1820 2SM BR OVC003
     FM182100 13009KT P6SM BKN015
     FM190400 21010KT P6SM FEW010
     FM190700 VRB05KT 1SM BR SKC
     FM191500 21010KT P6SM SKC=



000
FTUS43 KGLD 181413 AAB
TAFGLD
TAF AMD
KGLD 181413Z 1814/1912 14005KT 6SM BR OVC008
      TEMPO 1815/1818 P6SM NSW SCT012
     FM181800 20010G16KT P6SM FEW050
     FM190000 20010KT P6SM SKC=



000
FTUS43 KGLD 181410 AAA
TAFMCK
TAF AMD
KMCK 181410Z 1814/1912 09008KT 2SM BR OVC004
      TEMPO 1814/1816 1/4SM FG VV002
     FM181800 12010G16KT P6SM SCT050
     FM190400 21010KT P6SM SKC=



000
FTUS43 KGLD 181410 AAA
TAFMCK
TAF AMD
KMCK 181410Z 1814/1912 09008KT 2SM BR OVC004
      TEMPO 1814/1816 1/4SM FG VV002
     FM181800 12010G16KT P6SM SCT050
     FM190400 21010KT P6SM SKC=



000
FTUS43 KGLD 181136 CCA
TAFGLD
TAF COR
KGLD 181136Z 1812/1912 VRB04KT 2SM BR BKN002
      TEMPO 1812/1813 5SM BR SCT002
     FM181330 19008KT P6SM SKC
     FM181800 20010G16KT P6SM FEW050
     FM190000 20010KT P6SM SKC=



000
FTUS43 KGLD 181121
TAFMCK
TAF
KMCK 181121Z 1812/1912 11005KT 1 1/2SM BR OVC005
      TEMPO 1812/1814 3SM BR SCT005 BKN010
     FM181400 15008KT P6SM BKN002
     FM181800 12010G16KT P6SM SCT050
     FM190400 21010KT P6SM SKC=



000
FTUS43 KGLD 181121
TAFGLD
TAF
KGLD 181121Z 1812/1912 VRB04KT 1/2SM FG VV002
      TEMPO 1812/1813 2SM BR SCT002
     FM181330 19008KT P6SM SKC
     FM181800 20010G16KT P6SM FEW050
     FM190000 20010KT P6SM SKC=



000
FTUS43 KGLD 181121
TAFMCK
TAF
KMCK 181121Z 1812/1912 11005KT 1 1/2SM BR OVC005
      TEMPO 1812/1814 3SM BR SCT005 BKN010
     FM181400 15008KT P6SM BKN002
     FM181800 12010G16KT P6SM SCT050
     FM190400 21010KT P6SM SKC=



000
FTUS43 KGLD 180901 AAA
TAFMCK
TAF AMD
KMCK 180901Z 1809/1906 10007KT 1/2SM FG OVC002
      TEMPO 1809/1812 3SM BR BKN007
     FM181200 11005KT 3SM BR OVC002
     FM181400 12008KT 5SM BR BKN002
     FM181500 15008KT P6SM BKN002
     FM181800 12008KT P6SM BKN010=



000
FTUS43 KGLD 180901 AAA
TAFMCK
TAF AMD
KMCK 180901Z 1809/1906 10007KT 1/2SM FG OVC002
      TEMPO 1809/1812 3SM BR BKN007
     FM181200 11005KT 3SM BR OVC002
     FM181400 12008KT 5SM BR BKN002
     FM181500 15008KT P6SM BKN002
     FM181800 12008KT P6SM BKN010=



000
FTUS43 KGLD 180900 AAB
TAFGLD
TAF AMD
KGLD 180900Z 1809/1906 VRB04KT 1/4SM FG VV002
      TEMPO 1809/1811 2SM BR BKN005
     FM181300 19008KT P6SM SKC
     FM181800 20015KT P6SM SKC
     FM190000 20010KT P6SM SKC=



000
FTUS43 KGLD 180735 AAA
TAFGLD
TAF AMD
KGLD 180735Z 1808/1906 VRB04KT 6SM BR SCT005
      TEMPO 1808/1811 3SM BR BKN005
     FM181300 19008KT P6SM SKC
     FM181800 20015KT P6SM SKC
     FM190000 20010KT P6SM SKC=



000
FTUS43 KGLD 180541
TAFGLD
TAF
KGLD 180541Z 1806/1906 VRB04KT P6SM SKC
     FM180800 VRB04KT 5SM BR SKC
     FM181300 19008KT P6SM SKC
     FM181800 20015KT P6SM SKC
     FM190000 20010KT P6SM SKC=



000
FTUS43 KGLD 180541
TAFMCK
TAF
KMCK 180541Z 1806/1906 08005KT P6SM SKC
     FM180900 10007KT 6SM BR OVC006
     FM181000 10006KT 5SM BR OVC004
     FM181200 11005KT 3SM BR OVC002
     FM181400 12008KT 5SM BR BKN002
     FM181500 15008KT P6SM BKN002
     FM181800 12008KT P6SM BKN010=



000
FTUS43 KGLD 180541
TAFMCK
TAF
KMCK 180541Z 1806/1906 08005KT P6SM SKC
     FM180900 10007KT 6SM BR OVC006
     FM181000 10006KT 5SM BR OVC004
     FM181200 11005KT 3SM BR OVC002
     FM181400 12008KT 5SM BR BKN002
     FM181500 15008KT P6SM BKN002
     FM181800 12008KT P6SM BKN010=



000
FTUS43 KGLD 172338
TAFMCK
TAF
KMCK 172338Z 1800/1824 08011KT P6SM SKC
     FM180900 10007KT 3SM BR BKN006
      TEMPO 1810/1812 1/2SM FG OVC001
     FM181200 11005KT 1/2SM FG OVC001
     FM181500 12008KT 3SM BR BKN002
     FM181600 15008KT P6SM SCT002=



000
FTUS43 KGLD 172338
TAFGLD
TAF
KGLD 172338Z 1800/1824 17012KT P6SM SKC
     FM180900 20006KT P6SM SKC=



000
FTUS43 KGLD 172338
TAFMCK
TAF
KMCK 172338Z 1800/1824 08011KT P6SM SKC
     FM180900 10007KT 3SM BR BKN006
      TEMPO 1810/1812 1/2SM FG OVC001
     FM181200 11005KT 1/2SM FG OVC001
     FM181500 12008KT 3SM BR BKN002
     FM181600 15008KT P6SM SCT002=



000
FTUS43 KGLD 172240 AAB
TAFGLD
TAF AMD
KGLD 172240Z 1723/1818 20008KT P6SM VCTS BKN110CB
      TEMPO 1723/1724 VRB15G25KT -TSRA
     FM180000 15009KT P6SM SCT250=



000
FTUS43 KGLD 172020 AAA
TAFGLD
TAF AMD
KGLD 172020Z 1720/1818 17010KT P6SM VCTS SCT050 BKN110CB
      TEMPO 1721/1722 VRB25G35KT P6SM -TSRA BKN110CB
     FM172300 16007KT P6SM SCT110 SCT250
     FM180000 15009KT P6SM SCT250=



000
FTUS43 KGLD 171740
TAFMCK
TAF
KMCK 171740Z 1718/1818 VRB06KT P6SM FEW050 FEW250
     FM180000 08010KT P6SM SCT250
     FM180800 12007KT 3SM BR BKN005
      TEMPO 1808/1812 1/2SM FG OVC001
     FM181200 12007KT 1 1/2SM BR OVC003
      TEMPO 1812/1815 1/2SM FG OVC001
     FM181500 12008KT 3SM BR BKN003=



000
FTUS43 KGLD 171740
TAFGLD
TAF
KGLD 171740Z 1718/1818 13007KT P6SM SCT050 SCT250
     FM180000 15009KT P6SM SCT250=



000
FTUS43 KGLD 171740
TAFMCK
TAF
KMCK 171740Z 1718/1818 VRB06KT P6SM FEW050 FEW250
     FM180000 08010KT P6SM SCT250
     FM180800 12007KT 3SM BR BKN005
      TEMPO 1808/1812 1/2SM FG OVC001
     FM181200 12007KT 1 1/2SM BR OVC003
      TEMPO 1812/1815 1/2SM FG OVC001
     FM181500 12008KT 3SM BR BKN003=



000
FTUS43 KGLD 171453 AAC
TAFMCK
TAF AMD
KMCK 171453Z 1715/1812 VRB06KT 1SM BR OVC003
     FM171600 VRB06KT P6SM SKC
     FM180200 08010KT P6SM SKC
     FM180600 11005KT 3SM BR SCT005=



000
FTUS43 KGLD 171453 AAC
TAFMCK
TAF AMD
KMCK 171453Z 1715/1812 VRB06KT 1SM BR OVC003
     FM171600 VRB06KT P6SM SKC
     FM180200 08010KT P6SM SKC
     FM180600 11005KT 3SM BR SCT005=



000
FTUS43 KGLD 171401 AAB
TAFMCK
TAF AMD
KMCK 171401Z 1714/1812 VRB04KT 1/4SM FG VV001
      TEMPO 1714/1715 1SM BR BKN004
     FM171600 VRB05KT P6SM SCT015
     FM171700 13005KT P6SM SKC
     FM180200 08010KT P6SM SKC
     FM180600 11005KT 3SM BR SCT005=



000
FTUS43 KGLD 171401 AAB
TAFMCK
TAF AMD
KMCK 171401Z 1714/1812 VRB04KT 1/4SM FG VV001
      TEMPO 1714/1715 1SM BR BKN004
     FM171600 VRB05KT P6SM SCT015
     FM171700 13005KT P6SM SKC
     FM180200 08010KT P6SM SKC
     FM180600 11005KT 3SM BR SCT005=



000
FTUS43 KGLD 171208 AAA
TAFMCK
TAF AMD
KMCK 171208Z 1712/1812 VRB04KT 3SM BR SCT005
      TEMPO 1712/1714 1/4SM FG VV001
     FM171500 VRB05KT P6SM SCT015
     FM171700 13005KT P6SM SKC
     FM180200 08010KT P6SM SKC
     FM180600 11005KT 3SM BR SCT005=



000
FTUS43 KGLD 171208 AAA
TAFMCK
TAF AMD
KMCK 171208Z 1712/1812 VRB04KT 3SM BR SCT005
      TEMPO 1712/1714 1/4SM FG VV001
     FM171500 VRB05KT P6SM SCT015
     FM171700 13005KT P6SM SKC
     FM180200 08010KT P6SM SKC
     FM180600 11005KT 3SM BR SCT005=



000
FTUS43 KGLD 171120
TAFMCK
TAF
KMCK 171120Z 1712/1812 VRB04KT 1SM BR SCT005
      TEMPO 1712/1715 3SM BR SCT025
     FM171500 VRB05KT P6SM SCT015
     FM171700 13005KT P6SM SKC
     FM180200 08010KT P6SM SKC
     FM180600 11005KT 3SM BR SCT005=



000
FTUS43 KGLD 171120
TAFMCK
TAF
KMCK 171120Z 1712/1812 VRB04KT 1SM BR SCT005
      TEMPO 1712/1715 3SM BR SCT025
     FM171500 VRB05KT P6SM SCT015
     FM171700 13005KT P6SM SKC
     FM180200 08010KT P6SM SKC
     FM180600 11005KT 3SM BR SCT005=



000
FTUS43 KGLD 171120
TAFGLD
TAF
KGLD 171120Z 1712/1812 25005KT P6SM SKC
     FM171500 VRB05KT P6SM SKC
     FM171900 16006KT P6SM FEW050 SCT200
     FM180000 21010KT P6SM SCT200=



000
FTUS43 KGLD 171005 AAA
TAFMCK
TAF AMD
KMCK 171005Z 1710/1806 VRB04KT 3SM BR SCT025
      TEMPO 1710/1713 1SM BR SCT005 BKN025
     FM171300 VRB04KT 4SM BR OVC015
     FM171500 VRB05KT P6SM SCT015
     FM171700 11005KT P6SM SKC=



000
FTUS43 KGLD 171005 AAA
TAFMCK
TAF AMD
KMCK 171005Z 1710/1806 VRB04KT 3SM BR SCT025
      TEMPO 1710/1713 1SM BR SCT005 BKN025
     FM171300 VRB04KT 4SM BR OVC015
     FM171500 VRB05KT P6SM SCT015
     FM171700 11005KT P6SM SKC=



000
FTUS43 KGLD 170551
TAFMCK
TAF
KMCK 170551Z 1706/1806 VRB04KT P6SM SKC
     FM170900 VRB04KT 6SM BR OVC025
     FM171100 VRB04KT 4SM BR OVC015
     FM171500 VRB05KT P6SM SCT015
     FM171700 11005KT P6SM SKC=



000
FTUS43 KGLD 170551
TAFGLD
TAF
KGLD 170551Z 1706/1806 31004KT P6SM SKC
     FM170700 25005KT P6SM SKC
     FM171300 28005KT P6SM SKC
     FM171500 VRB05KT P6SM SKC
     FM171800 14006KT P6SM SKC=



000
FTUS43 KGLD 170551
TAFMCK
TAF
KMCK 170551Z 1706/1806 VRB04KT P6SM SKC
     FM170900 VRB04KT 6SM BR OVC025
     FM171100 VRB04KT 4SM BR OVC015
     FM171500 VRB05KT P6SM SCT015
     FM171700 11005KT P6SM SKC=



000
FTUS43 KGLD 162324
TAFGLD
TAF
KGLD 162324Z 1700/1724 19009KT P6SM SKC
     FM170100 VRB06KT P6SM SKC
     FM170600 23006KT P6SM SKC
     FM171100 27006KT P6SM SKC
     FM171800 14006KT P6SM SKC=



000
FTUS43 KGLD 162324
TAFMCK
TAF
KMCK 162324Z 1700/1724 12010KT P6SM SKC
     FM170400 VRB06KT P6SM SKC
     FM171100 VRB04KT 6SM BR OVC025
     FM171500 09005KT P6SM SCT025=



000
FTUS43 KGLD 162324
TAFMCK
TAF
KMCK 162324Z 1700/1724 12010KT P6SM SKC
     FM170400 VRB06KT P6SM SKC
     FM171100 VRB04KT 6SM BR OVC025
     FM171500 09005KT P6SM SCT025=



000
FTUS43 KGLD 162233 AAA
TAFGLD
TAF AMD
KGLD 162233Z 1623/1718 19008KT P6SM SKC
     FM162300 33015KT P6SM SKC
     FM170200 VRB06KT P6SM SKC
     FM170600 23006KT P6SM SKC=



    US Dept of Commerce
    National Oceanic and Atmospheric Administration
    National Weather Service
    1325 East West Highway
    Silver Spring, MD 20910
    Page Author: NWS Internet Services Team
Disclaimer
Information Quality
Credits
Glossary
Privacy Policy
Freedom of Information Act (FOIA)
About Us
Career Opportunities